CYFB

Iqaluit Airport

Iqaluit, Canada
METAR CYFB 280000Z 14017KT 3SM -SN DRSN OVC035 M03/M04 A2985 RMK SC8 SLP113
Observed Flight Rules
May-28 @ 00:00 UTC (an hour ago) Marginal Visual Flight Rules
Wind Visibility Clouds Conditions
140° at 17 knots 3 miles
  • Overcast at 3,500' AGL
  • Light Snow
  • Low drifting
  • Snow
Temperatures Readings
Current -3°C / 27°F
Dewpoint -4°C / 25°F
Humidity 93%
Altimeter 29.85" Hg
Pressure 1011.3 hPa
Elevation 34
METAR CYFB 280000Z 14017KT 3SM -SN DRSN OVC035 M03/M04 A2985 RMK SC8 SLP113
Observed Flight Rules
May-28 @ 00:00 UTC
(an hour ago)
MVFR
Wind Visibility
140° at 17 knots 3 miles
Clouds
  • Overcast at 3,500' AGL
Conditions
  • Light Snow
  • Low drifting
  • Snow
Temperature Dewpoint
-3°C / 27°F -4°C / 25°F
Humidity Altimeter Pressure
93% 29.85" Hg 1011.3 hPa